Time;durP1;ratioP1;P1;durP2;ratioP2;P2;SDS_P1;SDS_P2;PMS_P1;PMS_P2;Temp;Humidity;BMP_temperature;BMP_pressure;BME280_temperature;BME280_humidity;BME280_pressure;Samples;Min_cycle;Max_cycle;Signal;HPM_P1;HPM_P2
2023/08/18 00:00:29;;;;;;;10.70;7.95;;;18.00;99.90;;;;;;5034240;28;20025;-64
2023/08/18 00:02:55;;;;;;;9.85;7.68;;;18.00;99.90;;;;;;5035366;28;20486;-64
2023/08/18 00:05:21;;;;;;;11.05;8.63;;;18.00;99.90;;;;;;5033803;28;20074;-65
2023/08/18 00:07:47;;;;;;;10.95;7.93;;;18.10;99.90;;;;;;5043290;28;20452;-65
2023/08/18 00:10:13;;;;;;;11.98;7.60;;;18.00;99.90;;;;;;5043304;28;20052;-63
2023/08/18 00:12:38;;;;;;;11.45;8.88;;;17.90;99.90;;;;;;5043252;28;20044;-65
2023/08/18 00:15:04;;;;;;;14.60;9.00;;;17.90;99.90;;;;;;5038012;28;20040;-66
2023/08/18 00:17:30;;;;;;;13.38;8.63;;;17.90;99.90;;;;;;5043535;28;20063;-65
2023/08/18 00:19:56;;;;;;;11.75;7.88;;;18.00;99.90;;;;;;5038191;28;20112;-65
2023/08/18 00:22:21;;;;;;;13.65;8.50;;;17.90;99.90;;;;;;5014694;28;20037;-65
2023/08/18 00:24:47;;;;;;;11.63;8.32;;;17.90;99.90;;;;;;5040895;28;20395;-63
2023/08/18 00:27:13;;;;;;;15.90;9.10;;;18.00;99.90;;;;;;5026421;28;20041;-65
2023/08/18 00:29:39;;;;;;;10.60;8.60;;;17.90;99.90;;;;;;5034953;28;20079;-66
2023/08/18 00:32:04;;;;;;;15.82;8.48;;;17.90;99.90;;;;;;5033172;28;20021;-64
2023/08/18 00:34:30;;;;;;;10.32;8.18;;;17.80;99.90;;;;;;5031431;28;20021;-64
2023/08/18 00:36:56;;;;;;;13.23;7.90;;;17.80;99.90;;;;;;5008572;28;20028;-64
2023/08/18 00:39:22;;;;;;;12.13;8.95;;;17.80;99.90;;;;;;5012742;28;20514;-64
2023/08/18 00:41:48;;;;;;;11.60;8.13;;;17.80;99.90;;;;;;5027456;28;20041;-64
2023/08/18 00:44:13;;;;;;;14.73;8.25;;;17.80;99.90;;;;;;5030752;28;20025;-65
2023/08/18 00:46:39;;;;;;;9.50;7.72;;;17.70;99.90;;;;;;5033007;28;20045;-65
2023/08/18 00:49:08;;;;;;;13.85;9.63;;;17.70;99.90;;;;;;5033461;28;20052;-64
2023/08/18 00:51:34;;;;;;;13.10;9.18;;;17.80;99.90;;;;;;5034310;28;20102;-64
2023/08/18 00:54:02;;;;;;;10.68;8.85;;;17.80;99.90;;;;;;5035118;28;20102;-65
2023/08/18 00:56:27;;;;;;;13.35;8.23;;;17.80;99.90;;;;;;5039736;28;20040;-64
2023/08/18 00:58:54;;;;;;;11.68;8.57;;;17.70;99.90;;;;;;5037833;28;20572;-64
2023/08/18 01:01:21;;;;;;;11.40;8.25;;;17.70;99.90;;;;;;5038946;28;20116;-65
2023/08/18 01:03:47;;;;;;;12.18;8.65;;;17.70;99.90;;;;;;5041847;28;20071;-65
2023/08/18 01:06:12;;;;;;;13.85;8.80;;;17.80;99.90;;;;;;5041006;28;20611;-65
2023/08/18 01:08:40;;;;;;;11.80;8.00;;;17.70;99.90;;;;;;5042287;28;20226;-65
2023/08/18 01:11:09;;;;;;;11.98;8.45;;;17.70;99.90;;;;;;5037039;28;20093;-64
2023/08/18 01:14:08;;;;;;;14.48;9.15;;;17.60;99.90;;;;;;5043962;28;20033;-66
2023/08/18 01:16:36;;;;;;;15.50;8.50;;;17.60;99.90;;;;;;5047076;28;20509;-64
2023/08/18 01:19:04;;;;;;;13.77;9.45;;;17.50;99.90;;;;;;5045851;28;20071;-65
2023/08/18 01:21:29;;;;;;;14.52;9.02;;;17.50;99.90;;;;;;5048443;28;20032;-65
2023/08/18 01:23:55;;;;;;;13.80;9.00;;;17.50;99.90;;;;;;5032584;28;20049;-65
2023/08/18 01:26:21;;;;;;;12.82;8.50;;;17.50;99.90;;;;;;5046362;28;20087;-64
2023/08/18 01:28:47;;;;;;;16.25;9.50;;;17.40;99.90;;;;;;5044688;28;20098;-64
2023/08/18 01:31:21;;;;;;;13.45;8.98;;;17.40;99.90;;;;;;5046808;28;20025;-65
2023/08/18 01:34:06;;;;;;;15.00;9.38;;;17.40;99.90;;;;;;5045070;28;20037;-66
2023/08/18 01:36:38;;;;;;;10.73;8.60;;;17.40;99.90;;;;;;5046830;28;20052;-64
2023/08/18 01:39:06;;;;;;;11.85;8.38;;;17.30;99.90;;;;;;5019649;28;20045;-65
2023/08/18 01:41:33;;;;;;;12.57;9.45;;;17.30;99.90;;;;;;5046556;28;20047;-64
2023/08/18 01:44:05;;;;;;;12.85;9.68;;;17.30;99.90;;;;;;5044705;28;20033;-65
2023/08/18 01:46:30;;;;;;;12.15;9.32;;;17.40;99.90;;;;;;5045607;28;20033;-65
2023/08/18 01:48:56;;;;;;;16.42;9.80;;;17.40;99.90;;;;;;5046110;28;20024;-64
2023/08/18 01:51:22;;;;;;;13.52;9.85;;;17.40;99.90;;;;;;5043713;28;20116;-64
2023/08/18 01:53:47;;;;;;;11.43;9.00;;;17.40;99.90;;;;;;5059042;28;20029;-64
2023/08/18 01:56:13;;;;;;;13.88;9.82;;;17.40;99.90;;;;;;5044244;28;21018;-65
2023/08/18 01:58:38;;;;;;;17.95;9.52;;;17.40;99.90;;;;;;5043275;28;20094;-64
2023/08/18 02:01:04;;;;;;;11.02;9.15;;;17.40;99.90;;;;;;5046910;28;20459;-65
2023/08/18 02:03:30;;;;;;;14.02;8.55;;;17.30;99.90;;;;;;5041683;28;20037;-60
2023/08/18 02:05:56;;;;;;;13.68;10.60;;;17.30;99.90;;;;;;5045115;28;20100;-65
2023/08/18 02:08:35;;;;;;;17.02;9.63;;;17.30;99.90;;;;;;5056471;28;20935;-64
2023/08/18 02:11:05;;;;;;;11.68;9.60;;;17.30;99.90;;;;;;5063697;28;20182;-66
2023/08/18 02:13:31;;;;;;;13.60;9.27;;;17.30;99.90;;;;;;5060792;28;20028;-64
2023/08/18 02:15:58;;;;;;;13.95;9.82;;;17.30;99.90;;;;;;5062373;28;20509;-64
2023/08/18 02:18:23;;;;;;;15.00;10.48;;;17.30;99.90;;;;;;5061650;28;20492;-66
2023/08/18 02:20:56;;;;;;;16.38;10.07;;;17.30;99.90;;;;;;5058245;28;20134;-66
2023/08/18 02:23:22;;;;;;;13.20;10.10;;;17.30;99.90;;;;;;5058032;28;20020;-64
2023/08/18 02:25:48;;;;;;;14.55;9.73;;;17.30;99.90;;;;;;5024131;28;20041;-66
2023/08/18 02:28:15;;;;;;;17.67;10.75;;;17.30;99.90;;;;;;5039487;28;20037;-66
2023/08/18 02:30:40;;;;;;;14.18;9.98;;;17.20;99.90;;;;;;5041217;28;20025;-66
2023/08/18 02:33:06;;;;;;;16.65;10.50;;;17.20;99.90;;;;;;5039967;28;20028;-66
2023/08/18 02:35:32;;;;;;;16.10;10.98;;;17.20;99.90;;;;;;5038544;28;20036;-64
2023/08/18 02:37:57;;;;;;;17.88;11.50;;;17.10;99.90;;;;;;5001231;28;20053;-64
2023/08/18 02:40:23;;;;;;;19.05;10.57;;;17.10;99.90;;;;;;5039432;28;20048;-66
2023/08/18 02:42:48;;;;;;;26.88;11.55;;;17.10;99.90;;;;;;5039104;28;20398;-65
2023/08/18 02:45:14;;;;;;;16.60;10.70;;;17.00;99.90;;;;;;5041544;28;20071;-68
2023/08/18 02:47:39;;;;;;;13.68;9.27;;;17.00;99.90;;;;;;5039671;28;21235;-67
2023/08/18 02:50:06;;;;;;;15.90;10.77;;;16.90;99.90;;;;;;5041809;28;20160;-65
2023/08/18 02:52:32;;;;;;;14.13;9.80;;;16.90;99.90;;;;;;5038484;28;20020;-66
2023/08/18 02:54:58;;;;;;;20.30;10.80;;;16.90;99.90;;;;;;5040189;28;20025;-66
2023/08/18 02:57:23;;;;;;;13.35;9.10;;;16.80;99.90;;;;;;5040044;28;20029;-65
2023/08/18 02:59:49;;;;;;;14.00;9.13;;;16.70;99.90;;;;;;5040830;28;20037;-66
2023/08/18 03:02:15;;;;;;;22.05;10.43;;;16.80;99.90;;;;;;5035025;28;20062;-66
2023/08/18 03:04:40;;;;;;;18.98;10.88;;;16.70;99.90;;;;;;5041658;28;20064;-69
2023/08/18 03:07:06;;;;;;;16.65;10.90;;;16.60;99.90;;;;;;5041370;28;20643;-65
2023/08/18 03:09:31;;;;;;;15.75;9.20;;;16.60;99.90;;;;;;5039563;28;20044;-65
2023/08/18 03:11:57;;;;;;;14.30;9.65;;;16.60;99.90;;;;;;5039427;28;20029;-66
2023/08/18 03:14:23;;;;;;;12.80;9.40;;;16.60;99.90;;;;;;5039291;28;20155;-66
2023/08/18 03:16:49;;;;;;;18.00;9.65;;;16.50;99.90;;;;;;5038524;28;20036;-67
2023/08/18 03:19:14;;;;;;;13.52;8.65;;;16.50;99.90;;;;;;5028429;28;20046;-66
2023/08/18 03:21:40;;;;;;;13.23;9.40;;;16.50;99.90;;;;;;5026652;28;20044;-67
2023/08/18 03:24:06;;;;;;;15.85;9.95;;;16.50;99.90;;;;;;4992147;28;20049;-65
2023/08/18 03:26:31;;;;;;;17.52;9.82;;;16.50;99.90;;;;;;5025889;28;20542;-63
2023/08/18 03:28:57;;;;;;;15.48;9.73;;;16.40;99.90;;;;;;5024802;28;20030;-64
2023/08/18 03:31:23;;;;;;;14.05;10.27;;;16.40;99.90;;;;;;5023325;28;20034;-64
2023/08/18 03:33:48;;;;;;;16.13;10.35;;;16.40;99.90;;;;;;5024430;28;20029;-65
2023/08/18 03:36:14;;;;;;;16.67;10.40;;;16.40;99.90;;;;;;5026747;28;20026;-66
2023/08/18 03:38:40;;;;;;;12.90;9.35;;;16.40;99.90;;;;;;4998460;28;20109;-66
2023/08/18 03:41:06;;;;;;;15.93;9.80;;;16.40;99.90;;;;;;5025152;28;20491;-65
2023/08/18 03:43:33;;;;;;;14.27;10.35;;;16.30;99.90;;;;;;5022749;28;20036;-66
2023/08/18 03:46:02;;;;;;;18.35;11.27;;;16.30;99.90;;;;;;5025362;28;20033;-67
2023/08/18 03:48:28;;;;;;;16.92;11.48;;;16.30;99.90;;;;;;5025529;28;20104;-66
2023/08/18 03:50:53;;;;;;;20.23;13.82;;;16.30;99.90;;;;;;5024448;28;20196;-67
2023/08/18 03:53:23;;;;;;;19.10;11.93;;;16.40;99.90;;;;;;5019891;28;20021;-64
2023/08/18 03:55:55;;;;;;;23.77;13.00;;;16.50;99.90;;;;;;5027468;28;20449;-67
2023/08/18 03:58:21;;;;;;;19.08;11.73;;;16.50;99.90;;;;;;5021224;28;20128;-66
2023/08/18 04:00:47;;;;;;;17.90;10.75;;;16.50;99.90;;;;;;5025029;28;20108;-66
2023/08/18 04:03:12;;;;;;;19.65;12.77;;;16.50;99.90;;;;;;5025017;28;20032;-66
2023/08/18 04:05:45;;;;;;;15.27;10.93;;;16.40;99.90;;;;;;5018314;28;20569;-66
2023/08/18 04:08:10;;;;;;;16.40;10.75;;;16.40;99.90;;;;;;5021518;28;20087;-66
2023/08/18 04:10:36;;;;;;;21.77;10.65;;;16.40;99.90;;;;;;5024581;28;20453;-67
2023/08/18 04:13:01;;;;;;;16.90;10.00;;;16.30;99.90;;;;;;5017111;28;20061;-68
2023/08/18 04:15:27;;;;;;;22.20;11.35;;;16.30;99.90;;;;;;5026456;28;20419;-67
2023/08/18 04:17:52;;;;;;;15.15;10.63;;;16.30;99.90;;;;;;5025538;28;20145;-66
2023/08/18 04:20:18;;;;;;;17.10;11.02;;;16.20;99.90;;;;;;5021648;28;20036;-72
2023/08/18 04:22:44;;;;;;;13.10;9.15;;;16.20;99.90;;;;;;5023048;28;20031;-67
2023/08/18 04:25:09;;;;;;;16.98;9.57;;;16.20;99.90;;;;;;5001742;28;20076;-65
2023/08/18 04:27:35;;;;;;;14.70;10.23;;;16.20;99.90;;;;;;5024095;28;20387;-63
2023/08/18 04:30:00;;;;;;;14.38;10.02;;;16.20;99.90;;;;;;5023756;28;20032;-67
2023/08/18 04:32:26;;;;;;;16.02;10.95;;;16.20;99.90;;;;;;5022859;28;20551;-65
2023/08/18 04:34:52;;;;;;;15.88;10.70;;;16.20;99.90;;;;;;5013395;28;20072;-66
2023/08/18 04:37:18;;;;;;;14.02;10.00;;;16.20;99.90;;;;;;5022323;28;20423;-67
2023/08/18 04:39:43;;;;;;;13.88;10.13;;;16.20;99.90;;;;;;4996363;28;20061;-67
2023/08/18 04:42:09;;;;;;;14.45;9.45;;;16.30;99.90;;;;;;5025369;28;20053;-67
2023/08/18 04:44:34;;;;;;;14.35;10.07;;;16.30;99.90;;;;;;5026418;28;20059;-65
2023/08/18 04:47:03;;;;;;;15.77;9.68;;;16.30;99.90;;;;;;5025752;28;20033;-67
2023/08/18 04:49:28;;;;;;;11.77;8.40;;;16.40;99.90;;;;;;5023679;28;20029;-63
2023/08/18 04:51:54;;;;;;;14.40;9.65;;;16.40;99.90;;;;;;5025346;28;20026;-62
2023/08/18 04:54:19;;;;;;;14.50;9.60;;;16.50;99.90;;;;;;5022953;28;20433;-64
2023/08/18 04:56:46;;;;;;;15.82;8.52;;;16.60;99.90;;;;;;5026428;28;20026;-66
2023/08/18 04:59:11;;;;;;;12.30;8.80;;;16.70;99.90;;;;;;5026076;28;20037;-65
2023/08/18 05:01:37;;;;;;;10.52;8.32;;;16.80;99.90;;;;;;5024951;28;20037;-65
2023/08/18 05:04:03;;;;;;;14.77;8.30;;;16.80;99.90;;;;;;5022123;28;20061;-66
2023/08/18 05:06:28;;;;;;;10.90;7.57;;;16.80;99.90;;;;;;5021567;28;20044;-66
2023/08/18 05:08:54;;;;;;;12.52;8.20;;;16.90;99.90;;;;;;5023371;28;20040;-66
2023/08/18 05:11:20;;;;;;;12.48;8.07;;;17.00;99.90;;;;;;5019352;28;20030;-66
2023/08/18 05:13:45;;;;;;;11.65;7.38;;;17.10;99.90;;;;;;5020981;28;20506;-66
2023/08/18 05:16:11;;;;;;;15.85;7.15;;;17.20;99.90;;;;;;5023138;28;20025;-66
2023/08/18 05:18:37;;;;;;;8.52;6.60;;;17.40;99.90;;;;;;5016575;28;20402;-66
2023/08/18 05:21:03;;;;;;;19.15;7.22;;;17.60;99.90;;;;;;5021007;28;20079;-66
2023/08/18 05:23:30;;;;;;;10.10;5.80;;;17.80;99.90;;;;;;5021702;28;20044;-67
2023/08/18 05:25:56;;;;;;;9.07;5.80;;;18.10;99.90;;;;;;5002435;28;20045;-65
2023/08/18 05:28:29;;;;;;;6.10;5.07;;;18.50;99.90;;;;;;5024094;28;20040;-67
2023/08/18 05:30:55;;;;;;;10.68;4.70;;;19.10;99.90;;;;;;5021995;28;20090;-67
2023/08/18 05:33:20;;;;;;;8.13;4.20;;;19.50;99.90;;;;;;5020538;28;20116;-64
2023/08/18 05:35:50;;;;;;;5.88;4.00;;;20.00;99.90;;;;;;5023232;28;20040;-64
2023/08/18 05:38:15;;;;;;;5.18;3.75;;;20.30;99.90;;;;;;5001996;28;20049;-64
2023/08/18 05:40:42;;;;;;;4.55;3.67;;;20.70;99.90;;;;;;5023726;28;20445;-64
2023/08/18 05:43:09;;;;;;;6.15;3.42;;;21.20;99.90;;;;;;5018290;28;20044;-61
2023/08/18 05:45:37;;;;;;;8.07;3.40;;;21.90;99.90;;;;;;5024150;28;20079;-62
2023/08/18 05:48:06;;;;;;;7.85;3.63;;;21.50;99.90;;;;;;5021430;28;20095;-63
2023/08/18 05:50:33;;;;;;;5.72;4.13;;;21.50;99.90;;;;;;5024067;28;20013;-64
2023/08/18 05:53:00;;;;;;;5.80;4.60;;;21.20;99.90;;;;;;5023566;28;20041;-64
2023/08/18 05:55:26;;;;;;;7.03;4.18;;;21.00;99.90;;;;;;5025378;28;20576;-63
2023/08/18 05:57:52;;;;;;;11.93;4.65;;;21.00;99.90;;;;;;5017801;28;20079;-63
2023/08/18 06:00:18;;;;;;;5.57;4.20;;;20.90;99.90;;;;;;5021276;28;20521;-64
2023/08/18 06:02:44;;;;;;;5.43;4.15;;;20.70;99.90;;;;;;5024641;28;20409;-64
2023/08/18 06:05:10;;;;;;;6.00;4.15;;;20.50;99.90;;;;;;5023456;28;20026;-65
2023/08/18 06:07:36;;;;;;;7.57;4.25;;;20.50;99.90;;;;;;5021077;28;20709;-62
2023/08/18 06:10:03;;;;;;;8.65;4.57;;;20.30;99.90;;;;;;5024528;28;20060;-64
2023/08/18 06:12:28;;;;;;;5.95;4.43;;;20.20;99.90;;;;;;5022161;28;20025;-63
2023/08/18 06:14:54;;;;;;;7.97;5.10;;;20.10;99.90;;;;;;5024512;28;20440;-64
2023/08/18 06:17:20;;;;;;;8.85;3.63;;;20.00;99.90;;;;;;5010482;28;20029;-64
2023/08/18 06:19:45;;;;;;;8.30;3.92;;;20.00;99.90;;;;;;5022233;28;20163;-64
2023/08/18 06:22:11;;;;;;;5.85;3.65;;;20.30;99.90;;;;;;5023916;28;20487;-63
2023/08/18 06:24:37;;;;;;;10.23;4.50;;;20.30;99.90;;;;;;5022918;28;20033;-63
2023/08/18 06:27:02;;;;;;;5.80;4.00;;;20.40;99.90;;;;;;4998762;28;20048;-64
2023/08/18 06:29:28;;;;;;;7.60;4.43;;;20.60;99.90;;;;;;5007081;28;20033;-64
2023/08/18 06:31:53;;;;;;;4.25;3.65;;;20.60;99.90;;;;;;5023122;28;20037;-64
2023/08/18 06:34:19;;;;;;;6.57;3.90;;;20.80;99.90;;;;;;5023469;28;20040;-64
2023/08/18 06:36:45;;;;;;;5.30;3.50;;;21.20;99.90;;;;;;5023196;28;20571;-64
2023/08/18 06:39:10;;;;;;;4.35;3.00;;;21.60;99.90;;;;;;4993943;28;20046;-64
2023/08/18 06:41:37;;;;;;;5.20;3.45;;;21.70;99.90;;;;;;5022704;28;20160;-60
2023/08/18 06:44:04;;;;;;;5.70;3.30;;;21.60;99.90;;;;;;5023524;28;20383;-62
2023/08/18 06:46:29;;;;;;;4.45;3.22;;;21.70;99.90;;;;;;5022774;28;20029;-65
2023/08/18 06:48:55;;;;;;;4.63;3.70;;;22.10;99.90;;;;;;5022142;28;20083;-64
2023/08/18 06:51:21;;;;;;;12.10;3.60;;;22.50;99.90;;;;;;5016240;28;20068;-65
2023/08/18 06:53:46;;;;;;;6.03;3.55;;;22.70;99.90;;;;;;5021950;28;20406;-65
2023/08/18 06:56:12;;;;;;;6.97;3.65;;;23.10;99.90;;;;;;5025301;28;20037;-62
2023/08/18 06:58:37;;;;;;;8.63;4.15;;;23.20;99.90;;;;;;5024536;28;20108;-65
2023/08/18 07:01:03;;;;;;;7.53;4.47;;;23.10;99.90;;;;;;5028063;28;20045;-65
2023/08/18 07:03:29;;;;;;;4.10;3.33;;;23.60;99.90;;;;;;5026416;28;20254;-63
2023/08/18 07:05:56;;;;;;;7.63;4.10;;;23.50;99.90;;;;;;5023496;28;20048;-65
2023/08/18 07:08:25;;;;;;;7.40;4.00;;;23.20;99.90;;;;;;5028341;28;20040;-65
2023/08/18 07:10:50;;;;;;;4.20;3.72;;;23.50;99.90;;;;;;5027263;28;20021;-64
2023/08/18 07:13:16;;;;;;;8.02;4.20;;;23.80;99.90;;;;;;5027529;28;20457;-64
2023/08/18 07:15:41;;;;;;;7.78;3.83;;;23.50;99.90;;;;;;5028578;28;20025;-64
2023/08/18 07:18:07;;;;;;;4.47;3.50;;;23.20;99.90;;;;;;5026010;28;20076;-66
2023/08/18 07:20:33;;;;;;;5.60;3.30;;;23.60;99.90;;;;;;5022620;28;20537;-64
2023/08/18 07:22:58;;;;;;;4.10;3.45;;;23.90;99.90;;;;;;5017861;28;20516;-65
2023/08/18 07:25:24;;;;;;;7.78;4.05;;;24.00;99.90;;;;;;5016654;28;20033;-64
2023/08/18 07:27:50;;;;;;;4.65;3.33;;;24.30;99.90;;;;;;5012501;28;20116;-64
2023/08/18 07:30:16;;;;;;;5.65;3.53;;;24.50;99.90;;;;;;5026749;28;20053;-65
2023/08/18 07:32:41;;;;;;;7.97;3.10;;;24.40;99.90;;;;;;5027367;28;20025;-65
2023/08/18 07:35:08;;;;;;;3.95;2.95;;;24.50;99.90;;;;;;5024639;28;20036;-65
2023/08/18 07:37:37;;;;;;;5.90;3.88;;;24.30;99.90;;;;;;5028287;28;20050;-64
2023/08/18 07:40:07;;;;;;;5.70;3.00;;;24.10;99.90;;;;;;5000036;28;20057;-65
2023/08/18 07:42:33;;;;;;;6.47;3.50;;;24.30;99.90;;;;;;5024075;28;20026;-65
2023/08/18 07:44:58;;;;;;;4.85;3.03;;;24.10;99.90;;;;;;5026567;28;20040;-65
2023/08/18 07:47:24;;;;;;;4.47;3.58;;;23.90;99.90;;;;;;5025475;28;20040;-63
2023/08/18 07:49:50;;;;;;;7.82;3.58;;;23.90;99.90;;;;;;5040326;28;20466;-65
2023/08/18 07:52:15;;;;;;;5.47;3.53;;;23.90;99.90;;;;;;5020360;28;20030;-65
2023/08/18 07:54:41;;;;;;;3.53;2.55;;;24.10;99.90;;;;;;5026754;28;20037;-65
2023/08/18 07:57:06;;;;;;;4.35;3.30;;;24.40;99.90;;;;;;5021979;28;21298;-64
2023/08/18 07:59:32;;;;;;;6.28;3.55;;;24.40;99.90;;;;;;5024989;28;20599;-65
2023/08/18 08:01:58;;;;;;;4.18;3.55;;;24.30;99.90;;;;;;5025918;28;20067;-65
2023/08/18 08:04:23;;;;;;;4.38;3.30;;;24.60;99.90;;;;;;5025859;28;20030;-65
2023/08/18 08:06:49;;;;;;;3.95;3.22;;;24.50;99.90;;;;;;5021317;28;20067;-64
2023/08/18 08:09:15;;;;;;;5.00;3.20;;;24.60;99.90;;;;;;5025901;28;20030;-67
2023/08/18 08:11:41;;;;;;;4.70;3.42;;;25.00;99.90;;;;;;5026947;28;20076;-65
2023/08/18 08:14:06;;;;;;;6.47;3.38;;;25.50;99.90;;;;;;5025022;28;20566;-64
2023/08/18 08:16:35;;;;;;;3.20;2.78;;;25.90;99.90;;;;;;5021006;28;20025;-64
2023/08/18 08:19:04;;;;;;;4.28;2.90;;;26.70;99.90;;;;;;5024486;28;20117;-65
2023/08/18 08:21:30;;;;;;;3.45;3.00;;;27.90;99.90;;;;;;5024907;28;20108;-65
2023/08/18 08:23:55;;;;;;;5.32;2.83;;;29.00;99.90;;;;;;5025474;28;20431;-67
2023/08/18 08:26:21;;;;;;;3.78;2.38;;;30.30;99.90;;;;;;5006367;28;20068;-65
2023/08/18 08:28:47;;;;;;;3.38;2.35;;;30.70;99.90;;;;;;5019900;28;20025;-65
2023/08/18 08:31:13;;;;;;;3.50;2.85;;;30.70;99.90;;;;;;5022778;28;20025;-66
2023/08/18 08:33:39;;;;;;;4.40;2.40;;;30.70;97.90;;;;;;5024588;28;20021;-64
2023/08/18 08:36:05;;;;;;;3.40;2.65;;;31.20;96.80;;;;;;5025199;28;20506;-65
2023/08/18 08:38:30;;;;;;;4.47;2.78;;;30.80;97.50;;;;;;5003610;28;20104;-64
2023/08/18 08:40:59;;;;;;;2.97;2.67;;;31.00;97.40;;;;;;5019379;28;20136;-65
2023/08/18 08:43:25;;;;;;;2.78;2.33;;;31.80;96.10;;;;;;5024802;28;20088;-64
2023/08/18 08:45:52;;;;;;;5.68;2.70;;;31.80;96.30;;;;;;5026385;28;20033;-66
2023/08/18 08:48:20;;;;;;;3.25;2.53;;;31.60;95.50;;;;;;5025940;28;20083;-65
2023/08/18 08:50:54;;;;;;;4.60;2.78;;;32.00;96.10;;;;;;5024714;28;20026;-66
2023/08/18 08:53:30;;;;;;;5.50;2.80;;;31.80;95.30;;;;;;5022643;28;20087;-66
2023/08/18 08:56:00;;;;;;;3.22;2.90;;;32.60;94.80;;;;;;5025400;28;20025;-66
2023/08/18 08:58:29;;;;;;;3.67;2.70;;;33.10;92.70;;;;;;5022842;28;20039;-65
2023/08/18 09:00:55;;;;;;;6.20;2.47;;;32.70;93.90;;;;;;5026271;28;20029;-66
2023/08/18 09:03:22;;;;;;;5.13;2.83;;;32.10;94.00;;;;;;5024067;28;20033;-66
2023/08/18 09:05:48;;;;;;;2.85;2.45;;;32.30;94.00;;;;;;5023257;28;20057;-65
2023/08/18 09:08:13;;;;;;;4.95;2.42;;;31.30;95.80;;;;;;5022408;28;20111;-67
2023/08/18 09:10:39;;;;;;;5.70;3.03;;;31.70;95.60;;;;;;5026317;28;20033;-64
2023/08/18 09:13:06;;;;;;;3.45;2.72;;;32.10;94.60;;;;;;5022595;28;20030;-66
2023/08/18 09:15:31;;;;;;;5.32;3.05;;;32.80;94.40;;;;;;5024854;28;20038;-66
2023/08/18 09:17:57;;;;;;;4.72;3.38;;;33.00;93.40;;;;;;5020419;28;20040;-65
2023/08/18 09:20:23;;;;;;;7.00;3.58;;;32.50;93.50;;;;;;5023887;28;20483;-66
2023/08/18 09:22:54;;;;;;;3.63;3.30;;;32.00;93.80;;;;;;5022290;28;20475;-65
2023/08/18 09:25:20;;;;;;;4.80;3.15;;;32.00;93.90;;;;;;5025519;28;20028;-66
2023/08/18 09:27:45;;;;;;;4.35;3.05;;;31.70;94.50;;;;;;4999780;28;20053;-65
2023/08/18 09:30:11;;;;;;;4.75;3.42;;;30.80;95.70;;;;;;5024912;28;20119;-66
2023/08/18 09:32:37;;;;;;;3.97;2.90;;;29.90;97.10;;;;;;5024449;28;20029;-66
2023/08/18 09:35:03;;;;;;;5.30;2.78;;;30.10;97.50;;;;;;5023435;28;20033;-66
2023/08/18 09:37:30;;;;;;;3.75;2.78;;;30.80;97.50;;;;;;5023559;28;20052;-65
2023/08/18 09:39:56;;;;;;;4.55;3.10;;;30.90;98.00;;;;;;4988446;28;21261;-66
2023/08/18 09:42:22;;;;;;;5.80;3.40;;;32.10;96.00;;;;;;5023454;28;20037;-66
2023/08/18 09:44:47;;;;;;;6.05;3.10;;;31.80;93.70;;;;;;5025719;28;20029;-64
2023/08/18 09:47:14;;;;;;;5.65;2.90;;;31.40;95.70;;;;;;5021938;28;20041;-64
2023/08/18 09:49:42;;;;;;;4.78;3.58;;;31.10;96.50;;;;;;5021351;28;20109;-63
2023/08/18 09:52:09;;;;;;;4.90;3.33;;;31.80;96.10;;;;;;5023332;28;20029;-64
2023/08/18 09:54:45;;;;;;;5.43;3.10;;;32.80;93.30;;;;;;5018371;28;20032;-67
2023/08/18 09:57:28;;;;;;;4.22;3.55;;;32.60;94.10;;;;;;5022827;28;20026;-66
2023/08/18 09:59:58;;;;;;;7.32;3.22;;;32.50;93.20;;;;;;5020164;28;20038;-65
2023/08/18 10:02:34;;;;;;;5.80;2.85;;;32.20;94.00;;;;;;5024626;28;20117;-65
2023/08/18 10:05:00;;;;;;;3.17;2.80;;;31.70;94.40;;;;;;5017439;28;20045;-65
2023/08/18 10:07:26;;;;;;;5.60;3.13;;;31.00;96.70;;;;;;5025152;28;20121;-65
2023/08/18 10:09:54;;;;;;;4.18;2.75;;;30.70;96.20;;;;;;5023758;28;20080;-65
2023/08/18 10:12:20;;;;;;;4.03;3.42;;;30.90;97.70;;;;;;5020486;28;20029;-65
2023/08/18 10:14:48;;;;;;;6.18;3.30;;;31.20;95.80;;;;;;5024141;28;20410;-64
2023/08/18 10:17:15;;;;;;;4.90;3.67;;;31.20;96.30;;;;;;5018606;28;20224;-65
2023/08/18 10:19:50;;;;;;;5.28;3.53;;;30.70;96.20;;;;;;5020351;28;20119;-64
2023/08/18 10:22:18;;;;;;;4.70;3.17;;;30.40;97.60;;;;;;5022867;28;20040;-65
2023/08/18 10:24:48;;;;;;;4.90;3.58;;;30.20;99.20;;;;;;5024231;28;20029;-65
2023/08/18 10:27:26;;;;;;;3.50;3.08;;;30.50;98.70;;;;;;4997269;28;20034;-64
2023/08/18 10:29:55;;;;;;;3.72;3.33;;;30.20;99.60;;;;;;5024648;28;20502;-65
2023/08/18 10:32:23;;;;;;;7.47;2.97;;;30.10;99.30;;;;;;5024128;28;20025;-65
2023/08/18 10:34:50;;;;;;;8.43;3.63;;;30.00;99.90;;;;;;5026571;28;20035;-65
2023/08/18 10:37:20;;;;;;;6.32;3.30;;;29.80;99.90;;;;;;5026284;28;20030;-64
2023/08/18 10:39:46;;;;;;;4.63;3.10;;;29.70;99.90;;;;;;5001486;28;20037;-66
2023/08/18 10:42:15;;;;;;;4.03;3.08;;;30.00;99.90;;;;;;5027015;28;20035;-65
2023/08/18 10:44:57;;;;;;;5.22;2.75;;;30.40;99.70;;;;;;5024321;28;20098;-64
2023/08/18 10:47:34;;;;;;;7.00;3.35;;;30.50;99.90;;;;;;5025393;28;21130;-64
2023/08/18 10:50:04;;;;;;;5.28;3.63;;;30.20;99.70;;;;;;5027089;28;20048;-64
2023/08/18 10:52:32;;;;;;;4.65;2.85;;;29.90;99.60;;;;;;5023900;28;20029;-64
2023/08/18 10:54:58;;;;;;;5.68;3.53;;;30.20;99.90;;;;;;5026225;28;20018;-66
2023/08/18 10:57:24;;;;;;;4.20;3.40;;;29.90;99.90;;;;;;5026499;28;20156;-64
2023/08/18 10:59:50;;;;;;;8.35;3.63;;;29.50;99.90;;;;;;5022739;28;20044;-63
2023/08/18 11:02:16;;;;;;;4.03;3.20;;;29.70;99.90;;;;;;5025652;28;20044;-64
2023/08/18 11:04:42;;;;;;;4.25;3.65;;;29.60;99.90;;;;;;5026802;28;20036;-64
2023/08/18 11:07:08;;;;;;;4.13;3.55;;;29.90;99.90;;;;;;5026819;28;20120;-65
2023/08/18 11:09:40;;;;;;;5.68;3.42;;;30.00;99.90;;;;;;5025268;28;20097;-64
2023/08/18 11:12:06;;;;;;;4.55;2.80;;;30.30;99.70;;;;;;5021931;28;20589;-66
2023/08/18 11:14:31;;;;;;;7.20;3.08;;;30.30;99.90;;;;;;5021683;28;20026;-65
2023/08/18 11:16:57;;;;;;;5.07;3.28;;;30.50;99.90;;;;;;5018345;28;20063;-65
2023/08/18 11:19:22;;;;;;;6.03;3.97;;;30.80;99.90;;;;;;5018590;28;20037;-67
2023/08/18 11:21:48;;;;;;;8.07;2.83;;;30.90;98.20;;;;;;5019757;28;20064;-63
2023/08/18 11:24:14;;;;;;;7.50;3.00;;;31.10;99.20;;;;;;5022339;28;20068;-63
2023/08/18 11:26:40;;;;;;;5.40;3.70;;;31.00;99.20;;;;;;5025171;28;20030;-65
2023/08/18 11:29:06;;;;;;;3.88;2.83;;;31.00;99.40;;;;;;4995610;28;20053;-64
2023/08/18 11:31:32;;;;;;;4.22;3.22;;;31.20;99.10;;;;;;5024349;28;20491;-65
2023/08/18 11:33:58;;;;;;;5.85;3.10;;;31.30;98.30;;;;;;5022346;28;20025;-66
2023/08/18 11:36:31;;;;;;;3.85;3.20;;;30.90;97.80;;;;;;5026974;28;20125;-65
2023/08/18 11:39:09;;;;;;;4.88;3.38;;;30.50;99.00;;;;;;4996947;28;20088;-64
2023/08/18 11:41:44;;;;;;;8.25;3.08;;;30.30;99.20;;;;;;5014402;28;20037;-65
2023/08/18 11:44:11;;;;;;;3.38;2.90;;;30.20;99.90;;;;;;5019444;28;20060;-64
2023/08/18 11:46:38;;;;;;;4.60;3.53;;;30.10;99.90;;;;;;5016323;28;20033;-64
2023/08/18 11:49:17;;;;;;;4.30;3.15;;;30.00;99.90;;;;;;5017715;28;20038;-64
2023/08/18 11:52:03;;;;;;;13.43;4.05;;;30.00;99.90;;;;;;5009039;28;20110;-64
2023/08/18 11:54:32;;;;;;;4.05;3.65;;;30.10;99.90;;;;;;5021736;28;20503;-66
2023/08/18 11:56:58;;;;;;;7.32;3.13;;;30.10;99.90;;;;;;5024428;28;20116;-63
2023/08/18 11:59:24;;;;;;;4.32;3.60;;;30.00;99.90;;;;;;5025482;28;20057;-65
2023/08/18 12:02:01;;;;;;;7.88;4.00;;;30.00;99.90;;;;;;5018075;28;20068;-66
2023/08/18 12:04:31;;;;;;;6.10;3.80;;;30.20;99.90;;;;;;5024354;28;20042;-66
2023/08/18 12:06:57;;;;;;;4.25;3.47;;;30.20;99.90;;;;;;5019529;28;20037;-63
2023/08/18 12:09:23;;;;;;;9.40;3.85;;;30.30;99.90;;;;;;5022901;28;20061;-64
2023/08/18 12:11:50;;;;;;;4.97;3.70;;;30.30;99.90;;;;;;5023040;28;20033;-65
2023/08/18 12:14:16;;;;;;;8.48;4.32;;;30.10;99.90;;;;;;5021028;28;20033;-64
2023/08/18 12:16:43;;;;;;;5.05;3.63;;;29.90;99.90;;;;;;5007483;28;20036;-66
2023/08/18 12:19:09;;;;;;;5.63;3.75;;;29.90;99.90;;;;;;5013049;28;20037;-63
2023/08/18 12:21:38;;;;;;;6.38;3.35;;;29.90;99.90;;;;;;5024170;28;20475;-65
2023/08/18 12:24:04;;;;;;;7.28;3.70;;;29.70;99.90;;;;;;5021255;28;20033;-63
2023/08/18 12:26:34;;;;;;;4.93;3.72;;;29.50;99.90;;;;;;5026119;28;20054;-65
2023/08/18 12:29:04;;;;;;;4.57;3.55;;;29.40;99.90;;;;;;5005468;28;20140;-64
2023/08/18 12:31:32;;;;;;;6.35;4.03;;;29.50;99.90;;;;;;5023303;28;20445;-66
2023/08/18 12:34:01;;;;;;;6.45;3.50;;;29.50;99.90;;;;;;5012539;28;20044;-66
2023/08/18 12:36:26;;;;;;;7.10;4.10;;;29.50;99.90;;;;;;5013355;28;20414;-63
2023/08/18 12:38:52;;;;;;;5.55;3.60;;;29.40;99.90;;;;;;4999197;28;20042;-64